sensor_id;sensor_type;location;lat;lon;timestamp;temperature;humidity
9564;DHT22;4820;50.870;4.702;2024-03-29T00:02:12;10.60;99.90
9564;DHT22;4820;50.870;4.702;2024-03-29T00:04:38;10.60;99.90
9564;DHT22;4820;50.870;4.702;2024-03-29T00:07:03;10.50;99.90
9564;DHT22;4820;50.870;4.702;2024-03-29T00:09:29;10.50;99.90
9564;DHT22;4820;50.870;4.702;2024-03-29T00:11:55;10.60;99.90
9564;DHT22;4820;50.870;4.702;2024-03-29T00:14:21;10.60;99.90
9564;DHT22;4820;50.870;4.702;2024-03-29T00:16:46;10.60;99.90
9564;DHT22;4820;50.870;4.702;2024-03-29T00:19:12;10.60;99.90
9564;DHT22;4820;50.870;4.702;2024-03-29T00:21:38;10.50;99.90
9564;DHT22;4820;50.870;4.702;2024-03-29T00:24:04;10.60;99.90
9564;DHT22;4820;50.870;4.702;2024-03-29T00:26:29;10.60;99.90
9564;DHT22;4820;50.870;4.702;2024-03-29T00:28:55;10.60;99.90
9564;DHT22;4820;50.870;4.702;2024-03-29T00:31:22;10.60;99.90
9564;DHT22;4820;50.870;4.702;2024-03-29T00:33:48;10.70;99.90
9564;DHT22;4820;50.870;4.702;2024-03-29T00:36:14;10.70;99.90
9564;DHT22;4820;50.870;4.702;2024-03-29T00:38:40;10.70;99.90
9564;DHT22;4820;50.870;4.702;2024-03-29T00:41:05;10.70;99.90
9564;DHT22;4820;50.870;4.702;2024-03-29T00:43:31;10.70;99.90
9564;DHT22;4820;50.870;4.702;2024-03-29T00:45:57;10.60;99.90
9564;DHT22;4820;50.870;4.702;2024-03-29T00:48:22;10.60;99.90
9564;DHT22;4820;50.870;4.702;2024-03-29T00:50:48;10.70;99.90
9564;DHT22;4820;50.870;4.702;2024-03-29T00:53:13;10.60;99.90
9564;DHT22;4820;50.870;4.702;2024-03-29T00:55:39;10.70;99.90
9564;DHT22;4820;50.870;4.702;2024-03-29T00:58:05;10.70;99.90
9564;DHT22;4820;50.870;4.702;2024-03-29T01:00:30;10.70;99.90
9564;DHT22;4820;50.870;4.702;2024-03-29T01:02:57;10.70;99.90
9564;DHT22;4820;50.870;4.702;2024-03-29T01:05:25;10.70;99.90
9564;DHT22;4820;50.870;4.702;2024-03-29T01:07:50;10.70;99.90
9564;DHT22;4820;50.870;4.702;2024-03-29T01:10:17;10.70;99.90
9564;DHT22;4820;50.870;4.702;2024-03-29T01:12:43;10.70;99.90
9564;DHT22;4820;50.870;4.702;2024-03-29T01:15:11;10.70;99.90
9564;DHT22;4820;50.870;4.702;2024-03-29T01:17:37;10.70;99.90
9564;DHT22;4820;50.870;4.702;2024-03-29T01:20:04;10.80;99.90
9564;DHT22;4820;50.870;4.702;2024-03-29T01:22:30;10.70;99.90
9564;DHT22;4820;50.870;4.702;2024-03-29T01:24:56;10.70;99.90
9564;DHT22;4820;50.870;4.702;2024-03-29T01:27:22;10.70;99.90
9564;DHT22;4820;50.870;4.702;2024-03-29T01:29:48;10.70;99.90
9564;DHT22;4820;50.870;4.702;2024-03-29T01:32:14;10.80;99.90
9564;DHT22;4820;50.870;4.702;2024-03-29T01:34:39;10.80;99.90
9564;DHT22;4820;50.870;4.702;2024-03-29T01:37:06;10.80;99.90
9564;DHT22;4820;50.870;4.702;2024-03-29T01:39:32;10.80;99.90
9564;DHT22;4820;50.870;4.702;2024-03-29T01:41:57;10.80;99.90
9564;DHT22;4820;50.870;4.702;2024-03-29T01:44:23;10.80;99.90
9564;DHT22;4820;50.870;4.702;2024-03-29T01:46:50;10.80;99.90
9564;DHT22;4820;50.870;4.702;2024-03-29T01:49:15;10.70;99.90
9564;DHT22;4820;50.870;4.702;2024-03-29T01:51:42;10.70;99.90
9564;DHT22;4820;50.870;4.702;2024-03-29T01:54:09;10.60;99.90
9564;DHT22;4820;50.870;4.702;2024-03-29T01:56:39;10.60;99.90
9564;DHT22;4820;50.870;4.702;2024-03-29T01:59:09;10.50;99.90
9564;DHT22;4820;50.870;4.702;2024-03-29T02:01:38;10.40;99.90
9564;DHT22;4820;50.870;4.702;2024-03-29T02:04:05;10.40;99.90
9564;DHT22;4820;50.870;4.702;2024-03-29T02:06:31;10.40;99.90
9564;DHT22;4820;50.870;4.702;2024-03-29T02:08:57;10.30;99.90
9564;DHT22;4820;50.870;4.702;2024-03-29T02:11:23;10.30;99.90
9564;DHT22;4820;50.870;4.702;2024-03-29T02:13:49;10.20;99.90
9564;DHT22;4820;50.870;4.702;2024-03-29T02:16:15;10.20;99.90
9564;DHT22;4820;50.870;4.702;2024-03-29T02:18:42;10.20;99.90
9564;DHT22;4820;50.870;4.702;2024-03-29T02:21:09;10.20;99.90
9564;DHT22;4820;50.870;4.702;2024-03-29T02:23:40;10.10;99.90
9564;DHT22;4820;50.870;4.702;2024-03-29T02:26:07;10.10;99.90
9564;DHT22;4820;50.870;4.702;2024-03-29T02:28:34;10.00;99.90
9564;DHT22;4820;50.870;4.702;2024-03-29T02:31:01;10.00;99.90
9564;DHT22;4820;50.870;4.702;2024-03-29T02:33:27;9.90;99.90
9564;DHT22;4820;50.870;4.702;2024-03-29T02:35:52;9.90;99.90
9564;DHT22;4820;50.870;4.702;2024-03-29T02:38:18;9.80;99.90
9564;DHT22;4820;50.870;4.702;2024-03-29T02:40:44;9.80;99.90
9564;DHT22;4820;50.870;4.702;2024-03-29T02:43:10;9.70;99.90
9564;DHT22;4820;50.870;4.702;2024-03-29T02:45:36;9.70;99.90
9564;DHT22;4820;50.870;4.702;2024-03-29T02:48:02;9.70;99.90
9564;DHT22;4820;50.870;4.702;2024-03-29T02:50:28;9.60;99.90
9564;DHT22;4820;50.870;4.702;2024-03-29T02:52:54;9.60;99.90
9564;DHT22;4820;50.870;4.702;2024-03-29T02:55:21;9.50;99.90
9564;DHT22;4820;50.870;4.702;2024-03-29T02:57:47;9.50;99.90
9564;DHT22;4820;50.870;4.702;2024-03-29T03:00:13;9.50;99.90
9564;DHT22;4820;50.870;4.702;2024-03-29T03:02:40;9.50;99.90
9564;DHT22;4820;50.870;4.702;2024-03-29T03:05:08;9.40;99.90
9564;DHT22;4820;50.870;4.702;2024-03-29T03:07:34;9.40;99.90
9564;DHT22;4820;50.870;4.702;2024-03-29T03:10:19;9.30;99.90
9564;DHT22;4820;50.870;4.702;2024-03-29T03:13:03;9.30;99.90
9564;DHT22;4820;50.870;4.702;2024-03-29T03:15:29;9.20;99.90
9564;DHT22;4820;50.870;4.702;2024-03-29T03:17:56;9.20;99.90
9564;DHT22;4820;50.870;4.702;2024-03-29T03:20:22;9.20;99.90
9564;DHT22;4820;50.870;4.702;2024-03-29T03:22:51;9.10;99.90
9564;DHT22;4820;50.870;4.702;2024-03-29T03:25:18;9.10;99.90
9564;DHT22;4820;50.870;4.702;2024-03-29T03:27:44;9.10;99.90
9564;DHT22;4820;50.870;4.702;2024-03-29T03:30:11;9.10;99.90
9564;DHT22;4820;50.870;4.702;2024-03-29T03:32:36;9.00;99.90
9564;DHT22;4820;50.870;4.702;2024-03-29T03:35:02;9.00;99.90
9564;DHT22;4820;50.870;4.702;2024-03-29T03:37:29;8.90;99.90
9564;DHT22;4820;50.870;4.702;2024-03-29T03:39:54;8.90;99.90
9564;DHT22;4820;50.870;4.702;2024-03-29T03:42:20;8.90;99.90
9564;DHT22;4820;50.870;4.702;2024-03-29T03:44:46;8.90;99.90
9564;DHT22;4820;50.870;4.702;2024-03-29T03:47:12;8.90;99.90
9564;DHT22;4820;50.870;4.702;2024-03-29T03:49:38;8.90;99.90
9564;DHT22;4820;50.870;4.702;2024-03-29T03:52:05;8.90;99.90
9564;DHT22;4820;50.870;4.702;2024-03-29T03:54:31;8.90;99.90
9564;DHT22;4820;50.870;4.702;2024-03-29T03:56:56;8.90;99.90
9564;DHT22;4820;50.870;4.702;2024-03-29T03:59:22;8.80;99.90
9564;DHT22;4820;50.870;4.702;2024-03-29T04:01:49;8.80;99.90
9564;DHT22;4820;50.870;4.702;2024-03-29T04:04:20;8.70;99.90
9564;DHT22;4820;50.870;4.702;2024-03-29T04:06:47;8.70;99.90
9564;DHT22;4820;50.870;4.702;2024-03-29T04:09:17;8.70;99.90
9564;DHT22;4820;50.870;4.702;2024-03-29T04:11:43;8.70;99.90
9564;DHT22;4820;50.870;4.702;2024-03-29T04:14:09;8.60;99.90
9564;DHT22;4820;50.870;4.702;2024-03-29T04:16:34;8.60;99.90
9564;DHT22;4820;50.870;4.702;2024-03-29T04:19:00;8.60;99.90
9564;DHT22;4820;50.870;4.702;2024-03-29T04:21:26;8.50;99.90
9564;DHT22;4820;50.870;4.702;2024-03-29T04:23:52;8.60;99.90
9564;DHT22;4820;50.870;4.702;2024-03-29T04:26:19;8.60;99.90
9564;DHT22;4820;50.870;4.702;2024-03-29T04:28:45;8.70;99.90
9564;DHT22;4820;50.870;4.702;2024-03-29T04:31:11;8.80;99.90
9564;DHT22;4820;50.870;4.702;2024-03-29T04:33:37;8.80;99.90
9564;DHT22;4820;50.870;4.702;2024-03-29T04:36:04;8.90;99.90
9564;DHT22;4820;50.870;4.702;2024-03-29T04:38:31;8.90;99.90
9564;DHT22;4820;50.870;4.702;2024-03-29T04:40:58;9.00;99.90
9564;DHT22;4820;50.870;4.702;2024-03-29T04:43:25;9.00;99.90
9564;DHT22;4820;50.870;4.702;2024-03-29T04:46:01;9.10;99.90
9564;DHT22;4820;50.870;4.702;2024-03-29T04:48:30;9.20;99.90
9564;DHT22;4820;50.870;4.702;2024-03-29T04:50:55;9.20;99.90
9564;DHT22;4820;50.870;4.702;2024-03-29T04:53:22;9.20;99.90
9564;DHT22;4820;50.870;4.702;2024-03-29T04:55:54;9.20;99.90
9564;DHT22;4820;50.870;4.702;2024-03-29T04:58:20;9.30;99.90
9564;DHT22;4820;50.870;4.702;2024-03-29T05:00:46;9.30;99.90
9564;DHT22;4820;50.870;4.702;2024-03-29T05:03:13;9.30;99.90
9564;DHT22;4820;50.870;4.702;2024-03-29T05:05:40;9.30;99.90
9564;DHT22;4820;50.870;4.702;2024-03-29T05:08:06;9.20;99.90
9564;DHT22;4820;50.870;4.702;2024-03-29T05:10:32;9.20;99.90
9564;DHT22;4820;50.870;4.702;2024-03-29T05:12:58;9.20;99.90
9564;DHT22;4820;50.870;4.702;2024-03-29T05:15:25;9.20;99.90
9564;DHT22;4820;50.870;4.702;2024-03-29T05:17:51;9.10;99.90
9564;DHT22;4820;50.870;4.702;2024-03-29T05:20:16;9.00;99.90
9564;DHT22;4820;50.870;4.702;2024-03-29T05:22:42;8.90;99.90
9564;DHT22;4820;50.870;4.702;2024-03-29T05:25:08;8.90;99.90
9564;DHT22;4820;50.870;4.702;2024-03-29T05:27:33;8.90;99.90
9564;DHT22;4820;50.870;4.702;2024-03-29T05:29:59;8.90;99.90
9564;DHT22;4820;50.870;4.702;2024-03-29T05:32:25;9.00;99.90
9564;DHT22;4820;50.870;4.702;2024-03-29T05:34:50;8.90;99.90
9564;DHT22;4820;50.870;4.702;2024-03-29T05:37:16;9.00;99.90
9564;DHT22;4820;50.870;4.702;2024-03-29T05:39:52;9.00;99.90
9564;DHT22;4820;50.870;4.702;2024-03-29T05:42:33;9.10;99.90
9564;DHT22;4820;50.870;4.702;2024-03-29T05:45:00;9.10;99.90
9564;DHT22;4820;50.870;4.702;2024-03-29T05:47:27;9.20;99.90
9564;DHT22;4820;50.870;4.702;2024-03-29T05:49:54;9.20;99.90
9564;DHT22;4820;50.870;4.702;2024-03-29T05:52:19;9.20;99.90
9564;DHT22;4820;50.870;4.702;2024-03-29T05:54:46;9.20;99.90
9564;DHT22;4820;50.870;4.702;2024-03-29T05:57:12;9.10;99.90
9564;DHT22;4820;50.870;4.702;2024-03-29T05:59:39;9.10;99.90
9564;DHT22;4820;50.870;4.702;2024-03-29T06:02:05;9.10;99.90
9564;DHT22;4820;50.870;4.702;2024-03-29T06:04:32;9.10;99.90
9564;DHT22;4820;50.870;4.702;2024-03-29T06:07:02;9.20;99.90
9564;DHT22;4820;50.870;4.702;2024-03-29T06:09:29;9.20;99.90
9564;DHT22;4820;50.870;4.702;2024-03-29T06:11:55;9.20;99.90
9564;DHT22;4820;50.870;4.702;2024-03-29T06:14:24;9.10;99.90
9564;DHT22;4820;50.870;4.702;2024-03-29T06:17:09;9.00;99.90
9564;DHT22;4820;50.870;4.702;2024-03-29T06:19:54;9.00;99.90
9564;DHT22;4820;50.870;4.702;2024-03-29T06:22:26;9.10;99.90
9564;DHT22;4820;50.870;4.702;2024-03-29T06:24:58;9.10;99.90
9564;DHT22;4820;50.870;4.702;2024-03-29T06:27:32;9.10;99.90
9564;DHT22;4820;50.870;4.702;2024-03-29T06:30:00;9.00;99.90
9564;DHT22;4820;50.870;4.702;2024-03-29T06:32:26;9.00;99.90
9564;DHT22;4820;50.870;4.702;2024-03-29T06:34:53;9.00;99.90
9564;DHT22;4820;50.870;4.702;2024-03-29T06:37:19;9.00;99.90
9564;DHT22;4820;50.870;4.702;2024-03-29T06:39:49;9.00;99.90
9564;DHT22;4820;50.870;4.702;2024-03-29T06:42:15;9.10;99.90
9564;DHT22;4820;50.870;4.702;2024-03-29T06:44:41;9.10;99.90
9564;DHT22;4820;50.870;4.702;2024-03-29T06:47:07;9.10;99.90
9564;DHT22;4820;50.870;4.702;2024-03-29T06:49:33;9.10;99.90
9564;DHT22;4820;50.870;4.702;2024-03-29T06:51:59;9.20;99.90
9564;DHT22;4820;50.870;4.702;2024-03-29T06:54:28;9.10;99.90
9564;DHT22;4820;50.870;4.702;2024-03-29T06:56:54;9.10;99.90
9564;DHT22;4820;50.870;4.702;2024-03-29T06:59:20;9.20;99.90
9564;DHT22;4820;50.870;4.702;2024-03-29T07:01:46;9.30;99.90
9564;DHT22;4820;50.870;4.702;2024-03-29T07:04:24;9.50;99.90
9564;DHT22;4820;50.870;4.702;2024-03-29T07:06:53;9.50;99.90
9564;DHT22;4820;50.870;4.702;2024-03-29T07:09:23;9.70;99.90
9564;DHT22;4820;50.870;4.702;2024-03-29T07:11:50;9.80;99.90
9564;DHT22;4820;50.870;4.702;2024-03-29T07:14:17;9.90;99.90
9564;DHT22;4820;50.870;4.702;2024-03-29T07:16:45;10.10;99.90
9564;DHT22;4820;50.870;4.702;2024-03-29T07:19:11;10.20;99.90
9564;DHT22;4820;50.870;4.702;2024-03-29T07:21:45;10.30;99.90
9564;DHT22;4820;50.870;4.702;2024-03-29T07:24:11;10.30;99.90
9564;DHT22;4820;50.870;4.702;2024-03-29T07:26:37;10.40;99.90
9564;DHT22;4820;50.870;4.702;2024-03-29T07:29:04;10.40;99.90
9564;DHT22;4820;50.870;4.702;2024-03-29T07:31:31;10.40;99.90
9564;DHT22;4820;50.870;4.702;2024-03-29T07:33:57;10.40;99.90
9564;DHT22;4820;50.870;4.702;2024-03-29T07:36:23;10.40;99.90
9564;DHT22;4820;50.870;4.702;2024-03-29T07:38:51;10.50;99.90
9564;DHT22;4820;50.870;4.702;2024-03-29T07:41:16;10.50;99.90
9564;DHT22;4820;50.870;4.702;2024-03-29T07:43:55;10.40;99.90
9564;DHT22;4820;50.870;4.702;2024-03-29T07:46:35;10.40;99.90
9564;DHT22;4820;50.870;4.702;2024-03-29T07:49:02;10.50;99.90
9564;DHT22;4820;50.870;4.702;2024-03-29T07:51:28;10.50;99.90
9564;DHT22;4820;50.870;4.702;2024-03-29T07:53:54;10.60;99.90
9564;DHT22;4820;50.870;4.702;2024-03-29T07:56:20;10.60;99.90
9564;DHT22;4820;50.870;4.702;2024-03-29T07:58:52;10.60;99.90
9564;DHT22;4820;50.870;4.702;2024-03-29T08:01:20;10.60;99.90
9564;DHT22;4820;50.870;4.702;2024-03-29T08:03:47;10.60;99.90
9564;DHT22;4820;50.870;4.702;2024-03-29T08:06:13;10.60;99.90
9564;DHT22;4820;50.870;4.702;2024-03-29T08:08:38;10.50;99.90
9564;DHT22;4820;50.870;4.702;2024-03-29T08:11:04;10.50;99.90
9564;DHT22;4820;50.870;4.702;2024-03-29T08:13:30;10.50;99.90
9564;DHT22;4820;50.870;4.702;2024-03-29T08:16:01;10.40;99.90
9564;DHT22;4820;50.870;4.702;2024-03-29T08:18:28;10.50;99.90
9564;DHT22;4820;50.870;4.702;2024-03-29T08:20:54;10.50;99.90
9564;DHT22;4820;50.870;4.702;2024-03-29T08:23:24;10.50;99.90
9564;DHT22;4820;50.870;4.702;2024-03-29T08:25:50;10.60;99.90
9564;DHT22;4820;50.870;4.702;2024-03-29T08:28:17;10.60;99.90
9564;DHT22;4820;50.870;4.702;2024-03-29T08:30:45;10.70;99.90
9564;DHT22;4820;50.870;4.702;2024-03-29T08:33:11;10.70;99.90
9564;DHT22;4820;50.870;4.702;2024-03-29T08:35:37;10.80;99.90
9564;DHT22;4820;50.870;4.702;2024-03-29T08:38:08;10.80;99.90
9564;DHT22;4820;50.870;4.702;2024-03-29T08:40:34;10.80;99.90
9564;DHT22;4820;50.870;4.702;2024-03-29T08:43:02;10.80;99.90
9564;DHT22;4820;50.870;4.702;2024-03-29T08:45:30;10.80;99.90
9564;DHT22;4820;50.870;4.702;2024-03-29T08:47:56;10.80;99.90
9564;DHT22;4820;50.870;4.702;2024-03-29T08:50:22;10.80;99.90
9564;DHT22;4820;50.870;4.702;2024-03-29T08:52:48;10.80;99.90
9564;DHT22;4820;50.870;4.702;2024-03-29T08:55:14;10.90;99.90
9564;DHT22;4820;50.870;4.702;2024-03-29T08:57:39;10.90;99.90
9564;DHT22;4820;50.870;4.702;2024-03-29T09:00:06;11.00;99.90
9564;DHT22;4820;50.870;4.702;2024-03-29T09:02:32;11.10;99.90
9564;DHT22;4820;50.870;4.702;2024-03-29T09:04:57;11.30;99.90
9564;DHT22;4820;50.870;4.702;2024-03-29T09:07:23;11.30;99.90
9564;DHT22;4820;50.870;4.702;2024-03-29T09:09:49;11.30;99.90
9564;DHT22;4820;50.870;4.702;2024-03-29T09:12:15;11.40;99.90
9564;DHT22;4820;50.870;4.702;2024-03-29T09:14:43;11.40;99.90
9564;DHT22;4820;50.870;4.702;2024-03-29T09:17:09;11.50;99.90
9564;DHT22;4820;50.870;4.702;2024-03-29T09:19:37;11.50;99.90
9564;DHT22;4820;50.870;4.702;2024-03-29T09:22:02;11.60;99.90
9564;DHT22;4820;50.870;4.702;2024-03-29T09:24:28;11.70;99.90
9564;DHT22;4820;50.870;4.702;2024-03-29T09:26:54;11.80;99.90
9564;DHT22;4820;50.870;4.702;2024-03-29T09:29:20;11.80;99.90
9564;DHT22;4820;50.870;4.702;2024-03-29T09:31:46;11.90;99.90
9564;DHT22;4820;50.870;4.702;2024-03-29T09:34:13;12.00;99.90
9564;DHT22;4820;50.870;4.702;2024-03-29T09:36:41;12.10;99.90
9564;DHT22;4820;50.870;4.702;2024-03-29T09:39:07;12.20;99.90
9564;DHT22;4820;50.870;4.702;2024-03-29T09:41:34;12.30;99.90
9564;DHT22;4820;50.870;4.702;2024-03-29T09:44:03;12.50;99.90
9564;DHT22;4820;50.870;4.702;2024-03-29T09:46:34;12.60;99.90
9564;DHT22;4820;50.870;4.702;2024-03-29T09:49:01;12.70;99.90
9564;DHT22;4820;50.870;4.702;2024-03-29T09:51:27;12.70;99.90
9564;DHT22;4820;50.870;4.702;2024-03-29T09:53:55;12.80;99.90
9564;DHT22;4820;50.870;4.702;2024-03-29T09:56:25;12.80;99.90
9564;DHT22;4820;50.870;4.702;2024-03-29T09:58:50;12.80;99.90
9564;DHT22;4820;50.870;4.702;2024-03-29T10:01:16;12.70;99.90
9564;DHT22;4820;50.870;4.702;2024-03-29T10:03:48;12.70;99.90
9564;DHT22;4820;50.870;4.702;2024-03-29T10:06:14;12.70;99.90
9564;DHT22;4820;50.870;4.702;2024-03-29T10:08:40;12.70;99.90
9564;DHT22;4820;50.870;4.702;2024-03-29T10:11:06;12.60;99.90
9564;DHT22;4820;50.870;4.702;2024-03-29T10:13:33;12.60;99.90
9564;DHT22;4820;50.870;4.702;2024-03-29T10:16:00;12.60;99.90
9564;DHT22;4820;50.870;4.702;2024-03-29T10:18:29;12.70;99.90
9564;DHT22;4820;50.870;4.702;2024-03-29T10:21:07;12.70;99.90
9564;DHT22;4820;50.870;4.702;2024-03-29T10:23:35;12.90;99.90
9564;DHT22;4820;50.870;4.702;2024-03-29T10:26:04;13.00;99.90
9564;DHT22;4820;50.870;4.702;2024-03-29T10:28:34;13.10;99.90
9564;DHT22;4820;50.870;4.702;2024-03-29T10:31:04;13.20;99.90
9564;DHT22;4820;50.870;4.702;2024-03-29T10:33:31;13.40;99.90
9564;DHT22;4820;50.870;4.702;2024-03-29T10:35:59;13.50;99.90
9564;DHT22;4820;50.870;4.702;2024-03-29T10:38:27;13.60;99.90
9564;DHT22;4820;50.870;4.702;2024-03-29T10:40:53;13.60;99.90
9564;DHT22;4820;50.870;4.702;2024-03-29T10:43:20;13.70;99.90
9564;DHT22;4820;50.870;4.702;2024-03-29T10:45:50;13.70;99.90
9564;DHT22;4820;50.870;4.702;2024-03-29T10:48:28;13.80;99.90
9564;DHT22;4820;50.870;4.702;2024-03-29T10:50:58;13.90;99.90
9564;DHT22;4820;50.870;4.702;2024-03-29T10:53:24;14.00;99.90
9564;DHT22;4820;50.870;4.702;2024-03-29T10:55:57;14.10;99.90
9564;DHT22;4820;50.870;4.702;2024-03-29T10:58:25;14.00;99.90
9564;DHT22;4820;50.870;4.702;2024-03-29T11:00:57;14.00;99.90
9564;DHT22;4820;50.870;4.702;2024-03-29T11:03:42;14.20;99.90
9564;DHT22;4820;50.870;4.702;2024-03-29T11:06:12;14.20;99.90
9564;DHT22;4820;50.870;4.702;2024-03-29T11:08:39;14.20;99.90
9564;DHT22;4820;50.870;4.702;2024-03-29T11:11:12;14.20;99.90
9564;DHT22;4820;50.870;4.702;2024-03-29T11:14:14;14.10;99.90
9564;DHT22;4820;50.870;4.702;2024-03-29T11:16:41;14.00;99.90
9564;DHT22;4820;50.870;4.702;2024-03-29T11:19:13;14.00;99.90
9564;DHT22;4820;50.870;4.702;2024-03-29T11:21:41;14.00;99.90
9564;DHT22;4820;50.870;4.702;2024-03-29T11:24:10;13.90;99.90
9564;DHT22;4820;50.870;4.702;2024-03-29T11:26:36;13.90;99.90
9564;DHT22;4820;50.870;4.702;2024-03-29T11:29:03;13.90;99.90
9564;DHT22;4820;50.870;4.702;2024-03-29T11:31:29;14.00;99.90
9564;DHT22;4820;50.870;4.702;2024-03-29T11:33:59;14.20;99.90
9564;DHT22;4820;50.870;4.702;2024-03-29T11:36:28;14.40;99.90
9564;DHT22;4820;50.870;4.702;2024-03-29T11:38:59;14.50;99.90
9564;DHT22;4820;50.870;4.702;2024-03-29T11:41:27;14.60;99.90
9564;DHT22;4820;50.870;4.702;2024-03-29T11:43:56;14.70;99.90
9564;DHT22;4820;50.870;4.702;2024-03-29T11:46:22;14.60;99.90
9564;DHT22;4820;50.870;4.702;2024-03-29T11:48:49;14.50;99.90
9564;DHT22;4820;50.870;4.702;2024-03-29T11:51:20;14.40;99.90
9564;DHT22;4820;50.870;4.702;2024-03-29T11:53:51;14.30;99.90
9564;DHT22;4820;50.870;4.702;2024-03-29T11:56:18;14.30;99.90
9564;DHT22;4820;50.870;4.702;2024-03-29T11:58:45;14.20;99.90
9564;DHT22;4820;50.870;4.702;2024-03-29T12:01:11;14.20;99.90
9564;DHT22;4820;50.870;4.702;2024-03-29T12:03:41;14.30;99.90
9564;DHT22;4820;50.870;4.702;2024-03-29T12:06:07;14.50;99.90
9564;DHT22;4820;50.870;4.702;2024-03-29T12:08:40;14.50;99.90
9564;DHT22;4820;50.870;4.702;2024-03-29T12:11:07;14.50;99.90
9564;DHT22;4820;50.870;4.702;2024-03-29T12:13:33;14.60;99.90
9564;DHT22;4820;50.870;4.702;2024-03-29T12:16:00;14.70;99.90
9564;DHT22;4820;50.870;4.702;2024-03-29T12:18:28;14.70;99.90
9564;DHT22;4820;50.870;4.702;2024-03-29T12:20:55;14.70;99.90
9564;DHT22;4820;50.870;4.702;2024-03-29T12:23:22;14.90;99.90
9564;DHT22;4820;50.870;4.702;2024-03-29T12:25:53;15.00;99.90
9564;DHT22;4820;50.870;4.702;2024-03-29T12:28:21;15.20;99.90
9564;DHT22;4820;50.870;4.702;2024-03-29T12:30:48;15.10;99.90
9564;DHT22;4820;50.870;4.702;2024-03-29T12:33:16;15.20;99.90
9564;DHT22;4820;50.870;4.702;2024-03-29T12:35:43;15.20;99.90
9564;DHT22;4820;50.870;4.702;2024-03-29T12:38:11;15.20;99.90
9564;DHT22;4820;50.870;4.702;2024-03-29T12:40:38;15.10;99.90
9564;DHT22;4820;50.870;4.702;2024-03-29T12:43:07;15.20;99.90
9564;DHT22;4820;50.870;4.702;2024-03-29T12:45:35;15.30;99.90
9564;DHT22;4820;50.870;4.702;2024-03-29T12:48:02;15.40;99.90
9564;DHT22;4820;50.870;4.702;2024-03-29T12:50:32;15.50;99.90
9564;DHT22;4820;50.870;4.702;2024-03-29T12:53:00;15.50;99.90
9564;DHT22;4820;50.870;4.702;2024-03-29T12:55:28;15.50;99.90
9564;DHT22;4820;50.870;4.702;2024-03-29T12:57:56;15.40;99.90
9564;DHT22;4820;50.870;4.702;2024-03-29T13:00:22;15.40;99.90
9564;DHT22;4820;50.870;4.702;2024-03-29T13:02:49;15.40;99.90
9564;DHT22;4820;50.870;4.702;2024-03-29T13:05:16;15.50;99.90
9564;DHT22;4820;50.870;4.702;2024-03-29T13:07:42;15.60;99.90
9564;DHT22;4820;50.870;4.702;2024-03-29T13:10:08;15.70;99.90
9564;DHT22;4820;50.870;4.702;2024-03-29T13:12:45;15.60;99.90
9564;DHT22;4820;50.870;4.702;2024-03-29T13:15:20;15.70;99.90
9564;DHT22;4820;50.870;4.702;2024-03-29T13:17:47;15.70;99.90
9564;DHT22;4820;50.870;4.702;2024-03-29T13:20:14;15.70;99.90
9564;DHT22;4820;50.870;4.702;2024-03-29T13:22:41;15.90;99.90
9564;DHT22;4820;50.870;4.702;2024-03-29T13:25:08;16.00;99.90
9564;DHT22;4820;50.870;4.702;2024-03-29T13:27:40;16.00;99.90
9564;DHT22;4820;50.870;4.702;2024-03-29T13:30:07;16.00;99.90
9564;DHT22;4820;50.870;4.702;2024-03-29T13:32:34;15.80;99.90
9564;DHT22;4820;50.870;4.702;2024-03-29T13:35:00;15.70;99.90
9564;DHT22;4820;50.870;4.702;2024-03-29T13:37:26;15.80;99.90
9564;DHT22;4820;50.870;4.702;2024-03-29T13:39:54;15.80;99.90
9564;DHT22;4820;50.870;4.702;2024-03-29T13:42:20;15.70;99.90
9564;DHT22;4820;50.870;4.702;2024-03-29T13:44:49;15.70;99.90
9564;DHT22;4820;50.870;4.702;2024-03-29T13:47:15;15.80;99.90
9564;DHT22;4820;50.870;4.702;2024-03-29T13:49:42;15.80;99.90
9564;DHT22;4820;50.870;4.702;2024-03-29T13:52:11;15.80;99.90
9564;DHT22;4820;50.870;4.702;2024-03-29T13:54:37;15.80;99.90
9564;DHT22;4820;50.870;4.702;2024-03-29T13:57:03;15.80;99.90
9564;DHT22;4820;50.870;4.702;2024-03-29T13:59:32;15.70;99.90
9564;DHT22;4820;50.870;4.702;2024-03-29T14:02:00;15.70;99.90
9564;DHT22;4820;50.870;4.702;2024-03-29T14:04:25;15.70;99.90
9564;DHT22;4820;50.870;4.702;2024-03-29T14:06:51;15.70;99.90
9564;DHT22;4820;50.870;4.702;2024-03-29T14:09:16;15.70;99.90
9564;DHT22;4820;50.870;4.702;2024-03-29T14:11:43;15.70;99.90
9564;DHT22;4820;50.870;4.702;2024-03-29T14:14:09;15.70;99.90
9564;DHT22;4820;50.870;4.702;2024-03-29T14:16:37;15.70;99.90
9564;DHT22;4820;50.870;4.702;2024-03-29T14:19:03;15.70;99.90
9564;DHT22;4820;50.870;4.702;2024-03-29T14:21:29;15.80;99.90
9564;DHT22;4820;50.870;4.702;2024-03-29T14:23:56;15.80;99.90
9564;DHT22;4820;50.870;4.702;2024-03-29T14:26:22;15.80;99.90
9564;DHT22;4820;50.870;4.702;2024-03-29T14:28:49;15.80;99.90
9564;DHT22;4820;50.870;4.702;2024-03-29T14:31:15;15.80;99.90
9564;DHT22;4820;50.870;4.702;2024-03-29T14:33:41;15.80;99.90
9564;DHT22;4820;50.870;4.702;2024-03-29T14:36:07;15.90;99.90
9564;DHT22;4820;50.870;4.702;2024-03-29T14:38:33;15.90;99.90
9564;DHT22;4820;50.870;4.702;2024-03-29T14:40:58;15.80;99.90
9564;DHT22;4820;50.870;4.702;2024-03-29T14:43:24;15.80;99.90
9564;DHT22;4820;50.870;4.702;2024-03-29T14:45:50;15.80;99.90
9564;DHT22;4820;50.870;4.702;2024-03-29T14:48:21;15.90;99.90
9564;DHT22;4820;50.870;4.702;2024-03-29T14:50:50;15.90;99.90
9564;DHT22;4820;50.870;4.702;2024-03-29T14:53:15;15.90;99.90
9564;DHT22;4820;50.870;4.702;2024-03-29T14:55:41;16.00;99.90
9564;DHT22;4820;50.870;4.702;2024-03-29T14:58:07;16.00;99.90
9564;DHT22;4820;50.870;4.702;2024-03-29T15:00:34;16.00;99.90
9564;DHT22;4820;50.870;4.702;2024-03-29T15:03:00;16.00;99.90
9564;DHT22;4820;50.870;4.702;2024-03-29T15:05:26;16.10;99.90
9564;DHT22;4820;50.870;4.702;2024-03-29T15:07:53;16.20;99.90
9564;DHT22;4820;50.870;4.702;2024-03-29T15:10:19;16.30;99.90
9564;DHT22;4820;50.870;4.702;2024-03-29T15:12:47;16.30;99.90
9564;DHT22;4820;50.870;4.702;2024-03-29T15:15:13;16.40;99.90
9564;DHT22;4820;50.870;4.702;2024-03-29T15:17:39;16.30;99.90
9564;DHT22;4820;50.870;4.702;2024-03-29T15:20:08;16.40;99.90
9564;DHT22;4820;50.870;4.702;2024-03-29T15:22:37;16.40;99.90
9564;DHT22;4820;50.870;4.702;2024-03-29T15:25:08;16.30;99.90
9564;DHT22;4820;50.870;4.702;2024-03-29T15:27:34;16.10;99.90
9564;DHT22;4820;50.870;4.702;2024-03-29T15:30:18;15.90;99.90
9564;DHT22;4820;50.870;4.702;2024-03-29T15:32:44;15.80;99.90
9564;DHT22;4820;50.870;4.702;2024-03-29T15:35:09;15.80;99.90
9564;DHT22;4820;50.870;4.702;2024-03-29T15:37:36;15.90;99.90
9564;DHT22;4820;50.870;4.702;2024-03-29T15:40:03;15.90;99.90
9564;DHT22;4820;50.870;4.702;2024-03-29T15:42:29;15.90;99.90
9564;DHT22;4820;50.870;4.702;2024-03-29T15:44:55;15.90;99.90
9564;DHT22;4820;50.870;4.702;2024-03-29T15:47:21;15.90;99.90
9564;DHT22;4820;50.870;4.702;2024-03-29T15:49:47;15.90;99.90
9564;DHT22;4820;50.870;4.702;2024-03-29T15:52:13;15.90;99.90
9564;DHT22;4820;50.870;4.702;2024-03-29T15:54:39;15.90;99.90
9564;DHT22;4820;50.870;4.702;2024-03-29T15:57:05;15.90;99.90
9564;DHT22;4820;50.870;4.702;2024-03-29T15:59:30;15.90;99.90
9564;DHT22;4820;50.870;4.702;2024-03-29T16:01:57;15.90;99.90
9564;DHT22;4820;50.870;4.702;2024-03-29T16:04:24;15.90;99.90
9564;DHT22;4820;50.870;4.702;2024-03-29T16:06:50;15.90;99.90
9564;DHT22;4820;50.870;4.702;2024-03-29T16:09:16;16.00;99.90